createdAt,value
2018-03-08T00:00:43.436Z,931.56
2018-03-08T00:01:43.433Z,931.57
2018-03-08T00:02:43.426Z,931.59
2018-03-08T00:03:43.438Z,931.64
2018-03-08T00:04:43.433Z,931.64
2018-03-08T00:05:43.431Z,931.69
2018-03-08T00:06:43.422Z,931.64
2018-03-08T00:07:43.398Z,931.71
2018-03-08T00:08:43.411Z,931.72
2018-03-08T00:09:43.406Z,931.70
2018-03-08T00:10:43.383Z,931.72
2018-03-08T00:11:43.394Z,931.74
2018-03-08T00:12:43.390Z,931.75
2018-03-08T00:13:43.367Z,931.74
2018-03-08T00:14:43.361Z,931.72
2018-03-08T00:15:43.377Z,931.72
2018-03-08T00:16:43.369Z,931.76
2018-03-08T00:17:43.369Z,931.72
2018-03-08T00:18:43.361Z,931.72
2018-03-08T00:19:43.334Z,931.72
2018-03-08T00:20:43.328Z,931.73
2018-03-08T00:21:43.326Z,931.72
2018-03-08T00:22:43.317Z,931.69
2018-03-08T00:23:43.311Z,931.66
2018-03-08T00:24:43.307Z,931.71
2018-03-08T00:25:43.301Z,931.67
2018-03-08T00:26:43.313Z,931.69
2018-03-08T00:27:43.292Z,931.65
2018-03-08T00:28:43.285Z,931.61
2018-03-08T00:29:43.297Z,931.61
2018-03-08T00:30:43.273Z,931.64
2018-03-08T00:31:43.268Z,931.65
2018-03-08T00:32:43.262Z,931.69
2018-03-08T00:33:43.275Z,931.72
2018-03-08T00:34:43.252Z,931.69
2018-03-08T00:35:43.264Z,931.70
2018-03-08T00:36:43.242Z,931.75
2018-03-08T00:37:43.254Z,931.77
2018-03-08T00:38:43.231Z,931.74
2018-03-08T00:39:43.243Z,931.73
2018-03-08T00:40:43.221Z,931.74
2018-03-08T00:41:43.216Z,931.72
2018-03-08T00:42:43.209Z,931.71
2018-03-08T00:43:43.222Z,931.72
2018-03-08T00:44:43.198Z,931.71
2018-03-08T00:45:43.212Z,931.66
2018-03-08T00:46:43.206Z,931.66
2018-03-08T00:47:43.182Z,931.68
2018-03-08T00:48:43.178Z,931.66
2018-03-08T00:49:43.190Z,931.69
2018-03-08T00:50:43.190Z,931.72
2018-03-08T00:51:43.179Z,931.71
2018-03-08T00:52:43.174Z,931.70
2018-03-08T00:53:43.170Z,931.69
2018-03-08T00:54:43.163Z,931.68
2018-03-08T00:55:43.158Z,931.65
2018-03-08T00:56:43.153Z,931.67
2018-03-08T00:57:43.148Z,931.68
2018-03-08T00:58:43.142Z,931.65
2018-03-08T00:59:43.137Z,931.62
2018-03-08T01:00:43.131Z,931.67
2018-03-08T01:01:43.126Z,931.58
2018-03-08T01:02:43.120Z,931.61
2018-03-08T01:03:43.116Z,931.63
2018-03-08T01:04:43.109Z,931.65
2018-03-08T01:05:43.105Z,931.65
2018-03-08T01:06:43.098Z,931.63
2018-03-08T01:07:43.093Z,931.59
2018-03-08T01:08:43.088Z,931.66
2018-03-08T01:09:43.082Z,931.62
2018-03-08T01:10:43.078Z,931.62
2018-03-08T01:11:43.071Z,931.62
2018-03-08T01:12:43.072Z,931.60
2018-03-08T01:13:43.061Z,931.59
2018-03-08T01:14:43.055Z,931.58
2018-03-08T01:15:43.050Z,931.55
2018-03-08T01:16:43.044Z,931.60
2018-03-08T01:17:43.039Z,931.66
2018-03-08T01:18:43.035Z,931.60
2018-03-08T01:19:43.029Z,931.59
2018-03-08T01:20:43.022Z,931.55
2018-03-08T01:21:43.017Z,931.57
2018-03-08T01:22:43.014Z,931.54
2018-03-08T01:23:43.005Z,931.56
2018-03-08T01:24:43.059Z,931.56
2018-03-08T01:25:42.994Z,931.55
2018-03-08T01:26:42.988Z,931.55
2018-03-08T01:27:42.979Z,931.62
2018-03-08T01:28:42.959Z,931.61
2018-03-08T01:29:42.950Z,931.63
2018-03-08T01:30:42.944Z,931.64
2018-03-08T01:31:42.961Z,931.66
2018-03-08T01:32:42.956Z,931.68
2018-03-08T01:33:42.950Z,931.73
2018-03-08T01:34:42.926Z,931.74
2018-03-08T01:35:42.934Z,931.70
2018-03-08T01:36:42.914Z,931.68
2018-03-08T01:37:42.905Z,931.70
2018-03-08T01:38:42.904Z,931.67
2018-03-08T01:39:42.899Z,931.64
2018-03-08T01:40:42.892Z,931.67
2018-03-08T01:41:42.889Z,931.69
2018-03-08T01:42:42.877Z,931.68
2018-03-08T01:43:42.876Z,931.72
2018-03-08T01:44:42.867Z,931.73
2018-03-08T01:45:42.883Z,931.75
2018-03-08T01:46:42.863Z,931.74
2018-03-08T01:47:42.872Z,931.77
2018-03-08T01:48:42.849Z,931.76
2018-03-08T01:49:42.840Z,931.80
2018-03-08T01:50:42.838Z,931.82
2018-03-08T01:51:42.821Z,931.84
2018-03-08T01:52:42.844Z,931.82
2018-03-08T01:53:42.820Z,931.82
2018-03-08T01:54:42.814Z,931.83
2018-03-08T01:55:42.829Z,931.82
2018-03-08T01:56:42.805Z,931.82
2018-03-08T01:57:42.822Z,931.76
2018-03-08T01:58:42.793Z,931.74
2018-03-08T01:59:42.805Z,931.77
2018-03-08T02:00:42.782Z,931.78
2018-03-08T02:01:42.795Z,931.76
2018-03-08T02:02:42.779Z,931.76
2018-03-08T02:03:42.764Z,931.73
2018-03-08T02:04:42.760Z,931.68
2018-03-08T02:05:42.756Z,931.72
2018-03-08T02:06:42.748Z,931.69
2018-03-08T02:07:42.743Z,931.78
2018-03-08T02:08:42.756Z,931.78
2018-03-08T02:09:42.750Z,931.81
2018-03-08T02:10:42.717Z,931.85
2018-03-08T02:11:42.711Z,931.85
2018-03-08T02:12:42.705Z,931.84
2018-03-08T02:13:42.728Z,931.84
2018-03-08T02:14:42.702Z,931.82
2018-03-08T02:15:42.699Z,931.84
2018-03-08T02:16:42.711Z,931.81
2018-03-08T02:17:42.686Z,931.79
2018-03-08T02:18:42.680Z,931.78
2018-03-08T02:19:42.694Z,931.77
2018-03-08T02:20:42.675Z,931.80
2018-03-08T02:21:42.656Z,931.78
2018-03-08T02:22:42.676Z,931.75
2018-03-08T02:23:42.654Z,931.76
2018-03-08T02:24:42.668Z,931.81
2018-03-08T02:25:42.646Z,931.81
2018-03-08T02:26:42.638Z,931.81
2018-03-08T02:27:42.651Z,931.81
2018-03-08T02:28:42.644Z,931.85
2018-03-08T02:29:42.612Z,931.83
2018-03-08T02:30:42.624Z,931.84
2018-03-08T02:31:42.601Z,931.82
2018-03-08T02:32:42.623Z,931.82
2018-03-08T02:33:42.618Z,931.80
2018-03-08T02:34:42.614Z,931.86
2018-03-08T02:35:42.607Z,931.81
2018-03-08T02:36:42.593Z,931.82
2018-03-08T02:37:42.587Z,931.81
2018-03-08T02:38:42.597Z,931.79
2018-03-08T02:39:42.584Z,931.78
2018-03-08T02:40:42.569Z,931.77
2018-03-08T02:41:42.574Z,931.78
2018-03-08T02:42:42.568Z,931.74
2018-03-08T02:43:42.563Z,931.76
2018-03-08T02:44:42.548Z,931.76
2018-03-08T02:45:42.552Z,931.71
2018-03-08T02:46:42.547Z,931.75
2018-03-08T02:47:42.552Z,931.76
2018-03-08T02:48:42.526Z,931.71
2018-03-08T02:49:42.531Z,931.76
2018-03-08T02:50:42.513Z,931.77
2018-03-08T02:51:42.509Z,931.77
2018-03-08T02:52:42.503Z,931.75
2018-03-08T02:53:42.507Z,931.80
2018-03-08T02:54:42.491Z,931.80
2018-03-08T02:55:42.523Z,931.82
2018-03-08T02:56:42.490Z,931.78
2018-03-08T02:57:42.481Z,931.78
2018-03-08T02:58:42.480Z,931.83
2018-03-08T02:59:42.474Z,931.83
2018-03-08T03:00:42.468Z,931.85
2018-03-08T03:01:42.463Z,931.85
2018-03-08T03:02:42.453Z,931.85
2018-03-08T03:03:42.451Z,931.83
2018-03-08T03:04:42.450Z,931.85
2018-03-08T03:05:42.441Z,931.82
2018-03-08T03:06:42.435Z,931.85
2018-03-08T03:07:42.411Z,931.84
2018-03-08T03:08:42.420Z,931.85
2018-03-08T03:09:42.402Z,931.86
2018-03-08T03:10:42.411Z,931.83
2018-03-08T03:11:42.387Z,931.84
2018-03-08T03:12:42.383Z,931.81
2018-03-08T03:13:42.392Z,931.79
2018-03-08T03:14:42.371Z,931.76
2018-03-08T03:15:42.365Z,931.76
2018-03-08T03:16:42.361Z,931.77
2018-03-08T03:17:42.373Z,931.77
2018-03-08T03:18:42.346Z,931.77
2018-03-08T03:19:42.343Z,931.78
2018-03-08T03:20:42.339Z,931.78
2018-03-08T03:21:42.332Z,931.78
2018-03-08T03:22:42.335Z,931.78
2018-03-08T03:23:42.313Z,931.79
2018-03-08T03:24:42.313Z,931.77
2018-03-08T03:25:42.310Z,931.79
2018-03-08T03:26:42.313Z,931.77
2018-03-08T03:27:42.307Z,931.75
2018-03-08T03:28:42.290Z,931.74
2018-03-08T03:29:42.285Z,931.71
2018-03-08T03:30:42.297Z,931.75
2018-03-08T03:31:42.275Z,931.74
2018-03-08T03:32:42.268Z,931.72
2018-03-08T03:33:42.285Z,931.70
2018-03-08T03:34:42.258Z,931.69
2018-03-08T03:35:42.252Z,931.67
2018-03-08T03:36:42.264Z,931.68
2018-03-08T03:37:42.241Z,931.64
2018-03-08T03:38:42.229Z,931.62
2018-03-08T03:39:42.246Z,931.66
2018-03-08T03:40:42.236Z,931.59
2018-03-08T03:41:42.336Z,931.60
2018-03-08T03:42:42.229Z,931.60
2018-03-08T03:43:42.220Z,931.61
2018-03-08T03:44:42.219Z,931.61
2018-03-08T03:45:42.214Z,931.59
2018-03-08T03:46:42.207Z,931.58
2018-03-08T03:47:42.202Z,931.57
2018-03-08T03:48:42.196Z,931.57
2018-03-08T03:49:42.191Z,931.60
2018-03-08T03:50:42.186Z,931.56
2018-03-08T03:51:42.178Z,931.55
2018-03-08T03:52:42.171Z,931.52
2018-03-08T03:53:42.166Z,931.50
2018-03-08T03:54:42.166Z,931.50
2018-03-08T03:55:42.158Z,931.47
2018-03-08T03:56:42.153Z,931.48
2018-03-08T03:57:42.148Z,931.48
2018-03-08T03:58:42.141Z,931.44
2018-03-08T03:59:42.132Z,931.46
2018-03-08T04:00:42.132Z,931.44
2018-03-08T04:01:42.120Z,931.43
2018-03-08T04:02:42.120Z,931.45
2018-03-08T04:03:42.111Z,931.43
2018-03-08T04:04:42.098Z,931.42
2018-03-08T04:05:42.093Z,931.43
2018-03-08T04:06:42.085Z,931.38
2018-03-08T04:07:42.086Z,931.41
2018-03-08T04:08:42.082Z,931.40
2018-03-08T04:09:42.076Z,931.35
2018-03-08T04:10:42.062Z,931.33
2018-03-08T04:11:42.059Z,931.33
2018-03-08T04:12:42.051Z,931.32
2018-03-08T04:13:42.053Z,931.31
2018-03-08T04:14:42.047Z,931.27
2018-03-08T04:15:42.041Z,931.31
2018-03-08T04:16:42.028Z,931.29
2018-03-08T04:17:42.022Z,931.26
2018-03-08T04:18:42.026Z,931.24
2018-03-08T04:19:42.022Z,931.22
2018-03-08T04:20:42.014Z,931.17
2018-03-08T04:21:42.011Z,931.17
2018-03-08T04:22:42.000Z,931.15
2018-03-08T04:23:41.995Z,931.14
2018-03-08T04:24:41.989Z,931.10
2018-03-08T04:25:41.988Z,931.07
2018-03-08T04:26:41.981Z,931.07
2018-03-08T04:27:41.972Z,931.04
2018-03-08T04:28:41.970Z,930.98
2018-03-08T04:29:41.965Z,931.01
2018-03-08T04:30:41.957Z,931.05
2018-03-08T04:31:41.953Z,931.03
2018-03-08T04:32:41.947Z,931.01
2018-03-08T04:33:41.942Z,931.00
2018-03-08T04:34:41.938Z,931.01
2018-03-08T04:35:42.021Z,930.97
2018-03-08T04:36:41.926Z,930.95
2018-03-08T04:37:41.914Z,930.98
2018-03-08T04:38:41.903Z,930.94
2018-03-08T04:39:41.903Z,930.90
2018-03-08T04:40:41.903Z,930.95
2018-03-08T04:41:41.892Z,930.94
2018-03-08T04:42:41.890Z,930.94
2018-03-08T04:43:41.884Z,930.93
2018-03-08T04:44:41.879Z,930.88
2018-03-08T04:45:41.873Z,930.88
2018-03-08T04:46:41.867Z,930.88
2018-03-08T04:47:41.861Z,930.88
2018-03-08T04:48:41.851Z,930.86
2018-03-08T04:49:41.849Z,930.87
2018-03-08T04:50:41.844Z,930.82
2018-03-08T04:51:41.838Z,930.83
2018-03-08T04:52:41.832Z,930.78
2018-03-08T04:53:41.827Z,930.82
2018-03-08T04:54:41.820Z,930.78
2018-03-08T04:55:41.814Z,930.71
2018-03-08T04:56:41.809Z,930.72
2018-03-08T04:57:41.803Z,930.73
2018-03-08T04:58:41.797Z,930.73
2018-03-08T04:59:41.891Z,930.75
2018-03-08T05:00:41.782Z,930.74
2018-03-08T05:01:41.779Z,930.75
2018-03-08T05:02:41.772Z,930.78
2018-03-08T05:03:41.770Z,930.72
2018-03-08T05:04:41.757Z,930.68
2018-03-08T05:05:41.856Z,930.70
2018-03-08T05:06:41.749Z,930.68
2018-03-08T05:07:41.744Z,930.67
2018-03-08T05:08:41.737Z,930.63
2018-03-08T05:09:41.728Z,930.64
2018-03-08T05:10:41.761Z,930.62
2018-03-08T05:11:41.720Z,930.59
2018-03-08T05:12:41.718Z,930.54
2018-03-08T05:13:41.708Z,930.55
2018-03-08T05:14:41.702Z,930.53
2018-03-08T05:15:41.697Z,930.54
2018-03-08T05:16:41.689Z,930.49
2018-03-08T05:17:41.685Z,930.47
2018-03-08T05:18:41.679Z,930.48
2018-03-08T05:19:41.673Z,930.42
2018-03-08T05:20:41.666Z,930.40
2018-03-08T05:21:41.662Z,930.36
2018-03-08T05:22:41.654Z,930.36
2018-03-08T05:23:41.808Z,930.37
2018-03-08T05:24:41.644Z,930.32
2018-03-08T05:25:41.635Z,930.31
2018-03-08T05:26:41.631Z,930.34
2018-03-08T05:27:41.623Z,930.33
2018-03-08T05:28:41.623Z,930.31
2018-03-08T05:29:41.614Z,930.30
2018-03-08T05:30:41.608Z,930.29
2018-03-08T05:31:41.599Z,930.30
2018-03-08T05:32:41.596Z,930.28
2018-03-08T05:33:41.589Z,930.28
2018-03-08T05:34:41.584Z,930.30
2018-03-08T05:35:41.678Z,930.31
2018-03-08T05:36:41.574Z,930.29
2018-03-08T05:37:41.565Z,930.31
2018-03-08T05:38:41.560Z,930.29
2018-03-08T05:39:41.552Z,930.29
2018-03-08T05:40:41.549Z,930.26
2018-03-08T05:41:41.647Z,930.26
2018-03-08T05:42:41.536Z,930.31
2018-03-08T05:43:41.531Z,930.32
2018-03-08T05:44:41.525Z,930.27
2018-03-08T05:45:41.512Z,930.31
2018-03-08T05:46:41.512Z,930.29
2018-03-08T05:47:41.504Z,930.32
2018-03-08T05:48:41.515Z,930.32
2018-03-08T05:49:41.495Z,930.35
2018-03-08T05:50:41.488Z,930.31
2018-03-08T05:51:41.482Z,930.32
2018-03-08T05:52:41.473Z,930.29
2018-03-08T05:53:41.471Z,930.29
2018-03-08T05:54:41.476Z,930.32
2018-03-08T05:55:41.457Z,930.29
2018-03-08T05:56:41.454Z,930.30
2018-03-08T05:57:41.441Z,930.29
2018-03-08T05:58:41.439Z,930.26
2018-03-08T05:59:41.431Z,930.29
2018-03-08T06:00:41.426Z,930.29
2018-03-08T06:01:41.419Z,930.26
2018-03-08T06:02:41.417Z,930.27
2018-03-08T06:03:41.400Z,930.24
2018-03-08T06:04:41.405Z,930.27
2018-03-08T06:05:41.500Z,930.24
2018-03-08T06:06:41.384Z,930.25
2018-03-08T06:07:41.381Z,930.25
2018-03-08T06:08:41.380Z,930.25
2018-03-08T06:09:41.372Z,930.26
2018-03-08T06:10:41.367Z,930.26
2018-03-08T06:11:41.462Z,930.33
2018-03-08T06:12:41.358Z,930.33
2018-03-08T06:13:41.354Z,930.29
2018-03-08T06:14:41.343Z,930.35
2018-03-08T06:15:41.340Z,930.30
2018-03-08T06:16:41.335Z,930.32
2018-03-08T06:17:41.318Z,930.29
2018-03-08T06:18:41.311Z,930.30
2018-03-08T06:19:41.316Z,930.28
2018-03-08T06:20:41.317Z,930.24
2018-03-08T06:21:41.296Z,930.25
2018-03-08T06:22:41.282Z,930.23
2018-03-08T06:23:41.301Z,930.26
2018-03-08T06:24:41.288Z,930.22
2018-03-08T06:25:41.273Z,930.22
2018-03-08T06:26:41.266Z,930.26
2018-03-08T06:27:41.253Z,930.28
2018-03-08T06:28:41.256Z,930.24
2018-03-08T06:29:41.242Z,930.19
2018-03-08T06:30:41.248Z,930.22
2018-03-08T06:31:41.228Z,930.23
2018-03-08T06:32:41.224Z,930.25
2018-03-08T06:33:41.235Z,930.22
2018-03-08T06:34:41.210Z,930.22
2018-03-08T06:35:41.221Z,930.21
2018-03-08T06:36:41.208Z,930.15
2018-03-08T06:37:41.191Z,930.18
2018-03-08T06:38:41.178Z,930.20
2018-03-08T06:39:41.174Z,930.18
2018-03-08T06:40:41.177Z,930.15
2018-03-08T06:41:41.163Z,930.15
2018-03-08T06:42:41.164Z,930.09
2018-03-08T06:43:41.160Z,930.11
2018-03-08T06:44:41.153Z,930.09
2018-03-08T06:45:41.139Z,930.11
2018-03-08T06:46:41.142Z,930.11
2018-03-08T06:47:41.136Z,930.11
2018-03-08T06:48:41.131Z,930.09
2018-03-08T06:49:41.126Z,930.11
2018-03-08T06:50:41.119Z,930.12
2018-03-08T06:51:41.109Z,930.07
2018-03-08T06:52:41.108Z,930.05
2018-03-08T06:53:41.094Z,930.05
2018-03-08T06:54:41.094Z,930.06
2018-03-08T06:55:41.088Z,930.06
2018-03-08T06:56:41.084Z,930.02
2018-03-08T06:57:41.069Z,930.02
2018-03-08T06:58:41.061Z,930.03
2018-03-08T06:59:41.069Z,930.05
2018-03-08T07:00:41.050Z,930.05
2018-03-08T07:01:41.044Z,930.04
2018-03-08T07:02:41.037Z,930.04
2018-03-08T07:03:41.038Z,930.03
2018-03-08T07:04:41.035Z,930.00
2018-03-08T07:05:41.020Z,929.99
2018-03-08T07:06:41.013Z,930.00
2018-03-08T07:07:41.013Z,929.96
2018-03-08T07:08:41.012Z,929.97
2018-03-08T07:09:40.997Z,929.98
2018-03-08T07:10:40.989Z,929.99
2018-03-08T07:11:41.115Z,929.95
2018-03-08T07:12:40.979Z,929.95
2018-03-08T07:13:40.981Z,929.98
2018-03-08T07:14:40.993Z,929.97
2018-03-08T07:15:40.978Z,929.96
2018-03-08T07:16:40.961Z,929.97
2018-03-08T07:17:41.059Z,929.97
2018-03-08T07:18:40.960Z,929.97
2018-03-08T07:19:40.942Z,930.01
2018-03-08T07:20:40.954Z,929.99
2018-03-08T07:21:40.953Z,930.03
2018-03-08T07:22:40.928Z,930.06
2018-03-08T07:23:41.036Z,930.05
2018-03-08T07:24:40.917Z,930.08
2018-03-08T07:25:40.929Z,930.13
2018-03-08T07:26:40.903Z,930.15
2018-03-08T07:27:40.907Z,930.16
2018-03-08T07:28:40.936Z,930.15
2018-03-08T07:29:40.906Z,930.13
2018-03-08T07:30:40.894Z,930.19
2018-03-08T07:31:40.888Z,930.21
2018-03-08T07:32:40.883Z,930.23
2018-03-08T07:33:40.877Z,930.26
2018-03-08T07:34:40.874Z,930.27
2018-03-08T07:35:40.861Z,930.26
2018-03-08T07:36:40.854Z,930.28
2018-03-08T07:37:40.854Z,930.31
2018-03-08T07:38:40.846Z,930.26
2018-03-08T07:39:40.840Z,930.29
2018-03-08T07:40:40.835Z,930.29
2018-03-08T07:41:40.929Z,930.30
2018-03-08T07:42:40.817Z,930.31
2018-03-08T07:43:40.816Z,930.31
2018-03-08T07:44:40.811Z,930.36
2018-03-08T07:45:40.810Z,930.32
2018-03-08T07:46:40.793Z,930.41
2018-03-08T07:47:40.787Z,930.40
2018-03-08T07:48:40.782Z,930.38
2018-03-08T07:49:40.781Z,930.39
2018-03-08T07:50:40.778Z,930.41
2018-03-08T07:51:40.772Z,930.43
2018-03-08T07:52:40.763Z,930.41
2018-03-08T07:53:40.763Z,930.42
2018-03-08T07:54:40.745Z,930.43
2018-03-08T07:55:40.739Z,930.47
2018-03-08T07:56:40.739Z,930.45
2018-03-08T07:57:40.734Z,930.45
2018-03-08T07:58:40.721Z,930.51
2018-03-08T07:59:40.720Z,930.52
2018-03-08T08:00:40.710Z,930.52
2018-03-08T08:01:40.713Z,930.56
2018-03-08T08:02:40.697Z,930.57
2018-03-08T08:03:40.691Z,930.51
2018-03-08T08:04:40.695Z,930.57
2018-03-08T08:05:40.689Z,930.52
2018-03-08T08:06:40.676Z,930.53
2018-03-08T08:07:40.677Z,930.53
2018-03-08T08:08:40.662Z,930.55
2018-03-08T08:09:40.666Z,930.63
2018-03-08T08:10:40.649Z,930.58
2018-03-08T08:11:40.644Z,930.60
2018-03-08T08:12:40.638Z,930.62
2018-03-08T08:13:40.632Z,930.59
2018-03-08T08:14:40.625Z,930.57
2018-03-08T08:15:40.630Z,930.61
2018-03-08T08:16:40.617Z,930.60
2018-03-08T08:17:40.708Z,930.59
2018-03-08T08:18:40.605Z,930.61
2018-03-08T08:19:40.596Z,930.64
2018-03-08T08:20:40.599Z,930.64
2018-03-08T08:21:40.584Z,930.65
2018-03-08T08:22:40.577Z,930.70
2018-03-08T08:23:40.682Z,930.67
2018-03-08T08:24:40.572Z,930.68
2018-03-08T08:25:40.571Z,930.67
2018-03-08T08:26:40.564Z,930.69
2018-03-08T08:27:40.559Z,930.70
2018-03-08T08:28:40.548Z,930.69
2018-03-08T08:29:40.538Z,930.73
2018-03-08T08:30:40.540Z,930.77
2018-03-08T08:31:40.530Z,930.76
2018-03-08T08:32:40.525Z,930.76
2018-03-08T08:33:40.519Z,930.79
2018-03-08T08:34:40.512Z,930.79
2018-03-08T08:35:40.506Z,930.80
2018-03-08T08:36:40.505Z,930.79
2018-03-08T08:37:40.488Z,930.75
2018-03-08T08:38:40.493Z,930.78
2018-03-08T08:39:40.478Z,930.82
2018-03-08T08:40:40.474Z,930.81
2018-03-08T08:41:40.464Z,930.83
2018-03-08T08:42:40.466Z,930.85
2018-03-08T08:43:40.464Z,930.89
2018-03-08T08:44:40.448Z,930.85
2018-03-08T08:45:40.447Z,930.86
2018-03-08T08:46:40.455Z,930.86
2018-03-08T08:47:40.435Z,930.88
2018-03-08T08:48:40.422Z,930.85
2018-03-08T08:49:40.421Z,930.88
2018-03-08T08:50:40.409Z,930.88
2018-03-08T08:51:40.411Z,930.89
2018-03-08T08:52:40.400Z,930.85
2018-03-08T08:53:40.504Z,930.88
2018-03-08T08:54:40.398Z,930.89
2018-03-08T08:55:40.380Z,930.91
2018-03-08T08:56:40.373Z,930.91
2018-03-08T08:57:40.373Z,930.98
2018-03-08T08:58:40.366Z,930.92
2018-03-08T08:59:40.364Z,930.93
2018-03-08T09:00:40.355Z,930.98
2018-03-08T09:01:40.346Z,930.97
2018-03-08T09:02:40.339Z,930.96
2018-03-08T09:03:40.339Z,931.01
2018-03-08T09:04:40.337Z,931.01
2018-03-08T09:05:40.429Z,931.05
2018-03-08T09:06:40.318Z,930.99
2018-03-08T09:07:40.312Z,930.98
2018-03-08T09:08:40.304Z,931.04
2018-03-08T09:09:40.289Z,931.05
2018-03-08T09:10:40.282Z,931.06
2018-03-08T09:11:40.274Z,931.04
2018-03-08T09:12:40.280Z,931.07
2018-03-08T09:13:40.266Z,931.06
2018-03-08T09:14:40.272Z,931.11
2018-03-08T09:15:40.266Z,931.07
2018-03-08T09:16:40.260Z,931.08
2018-03-08T09:17:40.255Z,931.07
2018-03-08T09:18:40.226Z,931.11
2018-03-08T09:19:40.238Z,931.12
2018-03-08T09:20:40.231Z,931.12
2018-03-08T09:21:40.231Z,931.10
2018-03-08T09:22:40.206Z,931.18
2018-03-08T09:23:40.201Z,931.13
2018-03-08T09:24:40.199Z,931.09
2018-03-08T09:25:40.203Z,931.17
2018-03-08T09:26:40.184Z,931.13
2018-03-08T09:27:40.256Z,931.13
2018-03-08T09:28:40.171Z,931.12
2018-03-08T09:29:40.161Z,931.15
2018-03-08T09:30:40.152Z,931.17
2018-03-08T09:31:40.171Z,931.17
2018-03-08T09:32:40.160Z,931.18
2018-03-08T09:33:40.159Z,931.17
2018-03-08T09:34:40.139Z,931.16
2018-03-08T09:35:40.146Z,931.14
2018-03-08T09:36:40.123Z,931.17
2018-03-08T09:37:40.135Z,931.19
2018-03-08T09:38:40.105Z,931.16
2018-03-08T09:39:40.099Z,931.16
2018-03-08T09:40:40.117Z,931.18
2018-03-08T09:41:40.094Z,931.15
2018-03-08T09:42:40.105Z,931.22
2018-03-08T09:43:40.082Z,931.24
2018-03-08T09:44:40.075Z,931.25
2018-03-08T09:45:40.069Z,931.28
2018-03-08T09:46:40.062Z,931.30
2018-03-08T09:47:40.073Z,931.34
2018-03-08T09:48:40.052Z,931.37
2018-03-08T09:49:40.057Z,931.36
2018-03-08T09:50:40.055Z,931.32
2018-03-08T09:51:40.050Z,931.36
2018-03-08T09:52:40.047Z,931.31
2018-03-08T09:53:40.045Z,931.36
2018-03-08T09:54:40.034Z,931.36
2018-03-08T09:55:40.006Z,931.37
2018-03-08T09:56:40.022Z,931.36
2018-03-08T09:57:40.016Z,931.37
2018-03-08T09:58:40.009Z,931.37
2018-03-08T09:59:39.993Z,931.39
2018-03-08T10:00:39.978Z,931.41
2018-03-08T10:01:39.976Z,931.43
2018-03-08T10:02:39.965Z,931.47
2018-03-08T10:03:39.960Z,931.42
2018-03-08T10:04:39.943Z,931.44
2018-03-08T10:05:39.954Z,931.44
2018-03-08T10:06:39.947Z,931.44
2018-03-08T10:07:39.950Z,931.51
2018-03-08T10:08:39.934Z,931.52
2018-03-08T10:09:39.938Z,931.55
2018-03-08T10:10:39.921Z,931.57
2018-03-08T10:11:39.908Z,931.59
2018-03-08T10:12:39.918Z,931.60
2018-03-08T10:13:39.888Z,931.59
2018-03-08T10:14:39.888Z,931.61
2018-03-08T10:15:39.888Z,931.61
2018-03-08T10:16:39.893Z,931.63
2018-03-08T10:17:39.926Z,931.65
2018-03-08T10:18:39.860Z,931.66
2018-03-08T10:19:39.873Z,931.72
2018-03-08T10:20:39.867Z,931.71
2018-03-08T10:21:45.706Z,931.69
2018-03-08T10:22:39.850Z,931.72
2018-03-08T10:23:39.848Z,931.71
2018-03-08T10:24:39.827Z,931.70
2018-03-08T10:25:39.835Z,931.71
2018-03-08T10:26:39.828Z,931.77
2018-03-08T10:27:39.810Z,931.72
2018-03-08T10:28:39.812Z,931.71
2018-03-08T10:29:39.792Z,931.69
2018-03-08T10:30:39.784Z,931.76
2018-03-08T10:31:39.781Z,931.72
2018-03-08T10:32:39.791Z,931.74
2018-03-08T10:33:39.793Z,931.71
2018-03-08T10:34:39.774Z,931.76
2018-03-08T10:35:39.754Z,931.80
2018-03-08T10:36:39.766Z,931.76
2018-03-08T10:37:39.760Z,931.75
2018-03-08T10:38:39.744Z,931.77
2018-03-08T10:39:39.727Z,931.77
2018-03-08T10:41:46.312Z,931.79
2018-03-08T10:43:39.712Z,931.80
2018-03-08T10:44:39.711Z,931.83
2018-03-08T10:45:39.705Z,931.87
2018-03-08T10:46:39.687Z,931.89
2018-03-08T10:47:39.676Z,931.88
2018-03-08T10:48:39.690Z,931.91
2018-03-08T10:49:39.680Z,931.91
2018-03-08T10:50:39.673Z,931.93
2018-03-08T10:51:39.667Z,931.96
2018-03-08T10:52:39.662Z,931.90
2018-03-08T10:53:39.654Z,931.97
2018-03-08T10:54:39.648Z,932.00
2018-03-08T10:55:39.627Z,931.99
2018-03-08T10:56:39.621Z,932.03
2018-03-08T10:57:39.620Z,932.02
2018-03-08T10:58:39.612Z,932.00
2018-03-08T10:59:39.620Z,932.00
2018-03-08T11:00:39.595Z,932.05
2018-03-08T11:01:39.602Z,932.04
2018-03-08T11:02:39.603Z,932.05
2018-03-08T11:03:39.580Z,932.04
2018-03-08T11:04:39.587Z,932.02
2018-03-08T11:05:39.570Z,932.04
2018-03-08T11:06:39.574Z,932.07
2018-03-08T11:07:39.573Z,932.06
2018-03-08T11:08:39.548Z,932.09
2018-03-08T11:09:39.544Z,932.07
2018-03-08T11:10:39.554Z,932.09
2018-03-08T11:11:39.543Z,932.10
2018-03-08T11:12:39.528Z,932.16
2018-03-08T11:13:39.520Z,932.20
2018-03-08T11:14:39.529Z,932.20
2018-03-08T11:15:39.505Z,932.18
2018-03-08T11:16:39.499Z,932.23
2018-03-08T11:17:39.508Z,932.24
2018-03-08T11:18:39.486Z,932.27
2018-03-08T11:19:39.500Z,932.25
2018-03-08T11:20:39.480Z,932.22
2018-03-08T11:21:39.469Z,932.24
2018-03-08T11:22:39.477Z,932.25
2018-03-08T11:23:39.520Z,932.30
2018-03-08T11:24:39.453Z,932.31
2018-03-08T11:25:39.445Z,932.29
2018-03-08T11:26:39.441Z,932.33
2018-03-08T11:27:39.436Z,932.33
2018-03-08T11:28:39.427Z,932.32
2018-03-08T11:29:39.440Z,932.36
2018-03-08T11:30:39.438Z,932.36
2018-03-08T11:31:39.415Z,932.38
2018-03-08T11:32:39.422Z,932.38
2018-03-08T11:33:39.417Z,932.39
2018-03-08T11:34:39.406Z,932.43
2018-03-08T11:35:39.400Z,932.43
2018-03-08T11:36:39.379Z,932.44
2018-03-08T11:37:39.388Z,932.50
2018-03-08T11:38:39.382Z,932.48
2018-03-08T11:39:39.379Z,932.52
2018-03-08T11:40:40.911Z,932.48
2018-03-08T11:41:39.465Z,932.50
2018-03-08T11:42:39.346Z,932.51
2018-03-08T11:43:39.357Z,932.53
2018-03-08T11:44:39.351Z,932.55
2018-03-08T11:45:39.348Z,932.54
2018-03-08T11:46:39.341Z,932.53
2018-03-08T11:47:39.417Z,932.54
2018-03-08T11:48:39.312Z,932.54
2018-03-08T11:49:39.307Z,932.57
2018-03-08T11:50:39.299Z,932.63
2018-03-08T11:51:39.291Z,932.62
2018-03-08T11:52:39.302Z,932.62
2018-03-08T11:53:39.284Z,932.62
2018-03-08T11:54:39.308Z,932.64
2018-03-08T11:55:39.288Z,932.61
2018-03-08T11:56:39.264Z,932.63
2018-03-08T11:57:39.270Z,932.60
2018-03-08T11:58:39.266Z,932.64
2018-03-08T11:59:39.264Z,932.62
2018-03-08T12:00:39.254Z,932.64
2018-03-08T12:01:39.247Z,932.62
2018-03-08T12:02:39.244Z,932.65
2018-03-08T12:03:39.235Z,932.68
2018-03-08T12:04:39.231Z,932.73
2018-03-08T12:05:39.225Z,932.70
2018-03-08T12:06:39.221Z,932.70
2018-03-08T12:07:39.213Z,932.69
2018-03-08T12:08:39.206Z,932.67
2018-03-08T12:09:39.203Z,932.64
2018-03-08T12:10:39.194Z,932.67
2018-03-08T12:11:39.191Z,932.68
2018-03-08T12:12:39.188Z,932.72
2018-03-08T12:13:39.178Z,932.71
2018-03-08T12:14:39.176Z,932.75
2018-03-08T12:15:39.173Z,932.71
2018-03-08T12:16:39.163Z,932.78
2018-03-08T12:17:39.160Z,932.77
2018-03-08T12:18:39.152Z,932.80
2018-03-08T12:19:39.146Z,932.78
2018-03-08T12:20:39.141Z,932.79
2018-03-08T12:21:39.133Z,932.80
2018-03-08T12:22:39.130Z,932.81
2018-03-08T12:23:39.124Z,932.84
2018-03-08T12:24:39.121Z,932.84
2018-03-08T12:25:39.113Z,932.84
2018-03-08T12:26:39.109Z,932.85
2018-03-08T12:27:39.107Z,932.85
2018-03-08T12:28:39.098Z,932.83
2018-03-08T12:29:39.092Z,932.81
2018-03-08T12:30:39.083Z,932.81